sensor_id;sensor_type;location;lat;lon;timestamp;P1;durP1;ratioP1;P2;durP2;ratioP2
9330;SDS011;4704;50.470;12.072;2023-04-23T00:01:18;1.52;;;1.42;;
9330;SDS011;4704;50.470;12.072;2023-04-23T00:03:47;1.50;;;1.40;;
9330;SDS011;4704;50.470;12.072;2023-04-23T00:06:15;1.50;;;1.40;;
9330;SDS011;4704;50.470;12.072;2023-04-23T00:08:43;1.60;;;1.50;;
9330;SDS011;4704;50.470;12.072;2023-04-23T00:11:12;1.33;;;1.23;;
9330;SDS011;4704;50.470;12.072;2023-04-23T00:13:40;1.48;;;1.38;;
9330;SDS011;4704;50.470;12.072;2023-04-23T00:16:11;1.50;;;1.40;;
9330;SDS011;4704;50.470;12.072;2023-04-23T00:18:39;1.30;;;1.20;;
9330;SDS011;4704;50.470;12.072;2023-04-23T00:21:07;1.70;;;1.60;;
9330;SDS011;4704;50.470;12.072;2023-04-23T00:23:34;1.60;;;1.50;;
9330;SDS011;4704;50.470;12.072;2023-04-23T00:26:02;1.55;;;1.45;;
9330;SDS011;4704;50.470;12.072;2023-04-23T00:28:31;1.83;;;1.50;;
9330;SDS011;4704;50.470;12.072;2023-04-23T00:30:59;1.50;;;1.40;;
9330;SDS011;4704;50.470;12.072;2023-04-23T00:33:26;1.50;;;1.40;;
9330;SDS011;4704;50.470;12.072;2023-04-23T00:35:54;1.55;;;1.45;;
9330;SDS011;4704;50.470;12.072;2023-04-23T00:38:21;1.60;;;1.50;;
9330;SDS011;4704;50.470;12.072;2023-04-23T00:40:50;1.77;;;1.67;;
9330;SDS011;4704;50.470;12.072;2023-04-23T00:43:18;1.50;;;1.40;;
9330;SDS011;4704;50.470;12.072;2023-04-23T00:45:47;1.40;;;1.30;;
9330;SDS011;4704;50.470;12.072;2023-04-23T00:48:15;1.38;;;1.27;;
9330;SDS011;4704;50.470;12.072;2023-04-23T00:50:42;1.67;;;1.58;;
9330;SDS011;4704;50.470;12.072;2023-04-23T00:53:10;1.35;;;1.25;;
9330;SDS011;4704;50.470;12.072;2023-04-23T00:55:38;1.30;;;1.20;;
9330;SDS011;4704;50.470;12.072;2023-04-23T00:58:06;1.70;;;1.60;;
9330;SDS011;4704;50.470;12.072;2023-04-23T01:00:34;1.48;;;1.38;;
9330;SDS011;4704;50.470;12.072;2023-04-23T01:03:08;1.42;;;1.25;;
9330;SDS011;4704;50.470;12.072;2023-04-23T01:05:37;1.30;;;1.20;;
9330;SDS011;4704;50.470;12.072;2023-04-23T01:08:05;1.27;;;1.17;;
9330;SDS011;4704;50.470;12.072;2023-04-23T01:10:33;1.48;;;1.38;;
9330;SDS011;4704;50.470;12.072;2023-04-23T01:13:00;1.70;;;1.60;;
9330;SDS011;4704;50.470;12.072;2023-04-23T01:15:28;2.08;;;1.38;;
9330;SDS011;4704;50.470;12.072;2023-04-23T01:17:55;1.30;;;1.20;;
9330;SDS011;4704;50.470;12.072;2023-04-23T01:20:25;1.40;;;1.30;;
9330;SDS011;4704;50.470;12.072;2023-04-23T01:22:54;1.45;;;1.35;;
9330;SDS011;4704;50.470;12.072;2023-04-23T01:25:22;1.50;;;1.40;;
9330;SDS011;4704;50.470;12.072;2023-04-23T01:27:49;1.55;;;1.45;;
9330;SDS011;4704;50.470;12.072;2023-04-23T01:30:16;1.40;;;1.30;;
9330;SDS011;4704;50.470;12.072;2023-04-23T01:32:44;1.58;;;1.48;;
9330;SDS011;4704;50.470;12.072;2023-04-23T01:35:13;1.42;;;1.30;;
9330;SDS011;4704;50.470;12.072;2023-04-23T01:37:40;1.75;;;1.23;;
9330;SDS011;4704;50.470;12.072;2023-04-23T01:40:10;1.63;;;1.52;;
9330;SDS011;4704;50.470;12.072;2023-04-23T01:42:38;1.27;;;1.17;;
9330;SDS011;4704;50.470;12.072;2023-04-23T01:45:06;1.50;;;1.40;;
9330;SDS011;4704;50.470;12.072;2023-04-23T01:47:35;1.50;;;1.40;;
9330;SDS011;4704;50.470;12.072;2023-04-23T01:50:02;1.50;;;1.40;;
9330;SDS011;4704;50.470;12.072;2023-04-23T01:52:30;1.40;;;1.30;;
9330;SDS011;4704;50.470;12.072;2023-04-23T01:54:57;1.60;;;1.50;;
9330;SDS011;4704;50.470;12.072;2023-04-23T01:57:27;1.45;;;1.30;;
9330;SDS011;4704;50.470;12.072;2023-04-23T01:59:56;1.38;;;1.27;;
9330;SDS011;4704;50.470;12.072;2023-04-23T02:02:25;1.58;;;1.48;;
9330;SDS011;4704;50.470;12.072;2023-04-23T02:04:52;1.92;;;1.60;;
9330;SDS011;4704;50.470;12.072;2023-04-23T02:07:21;1.50;;;1.40;;
9330;SDS011;4704;50.470;12.072;2023-04-23T02:09:48;1.60;;;1.50;;
9330;SDS011;4704;50.470;12.072;2023-04-23T02:12:15;1.30;;;1.20;;
9330;SDS011;4704;50.470;12.072;2023-04-23T02:14:44;1.58;;;1.48;;
9330;SDS011;4704;50.470;12.072;2023-04-23T02:17:12;1.52;;;1.42;;
9330;SDS011;4704;50.470;12.072;2023-04-23T02:19:40;1.50;;;1.40;;
9330;SDS011;4704;50.470;12.072;2023-04-23T02:22:07;1.38;;;1.27;;
9330;SDS011;4704;50.470;12.072;2023-04-23T02:24:35;1.30;;;1.20;;
9330;SDS011;4704;50.470;12.072;2023-04-23T02:27:03;1.25;;;1.17;;
9330;SDS011;4704;50.470;12.072;2023-04-23T02:29:30;1.38;;;1.27;;
9330;SDS011;4704;50.470;12.072;2023-04-23T02:31:59;1.50;;;1.40;;
9330;SDS011;4704;50.470;12.072;2023-04-23T02:34:27;1.20;;;1.10;;
9330;SDS011;4704;50.470;12.072;2023-04-23T02:36:54;1.55;;;1.45;;
9330;SDS011;4704;50.470;12.072;2023-04-23T02:39:22;1.42;;;1.33;;
9330;SDS011;4704;50.470;12.072;2023-04-23T02:41:50;1.58;;;1.48;;
9330;SDS011;4704;50.470;12.072;2023-04-23T02:44:17;1.45;;;1.35;;
9330;SDS011;4704;50.470;12.072;2023-04-23T02:46:45;1.50;;;1.40;;
9330;SDS011;4704;50.470;12.072;2023-04-23T02:49:13;1.50;;;1.40;;
9330;SDS011;4704;50.470;12.072;2023-04-23T02:51:41;1.50;;;1.40;;
9330;SDS011;4704;50.470;12.072;2023-04-23T02:54:08;1.45;;;1.35;;
9330;SDS011;4704;50.470;12.072;2023-04-23T02:56:36;1.42;;;1.33;;
9330;SDS011;4704;50.470;12.072;2023-04-23T02:59:04;1.65;;;1.55;;
9330;SDS011;4704;50.470;12.072;2023-04-23T03:01:32;1.50;;;1.40;;
9330;SDS011;4704;50.470;12.072;2023-04-23T03:04:00;1.40;;;1.30;;
9330;SDS011;4704;50.470;12.072;2023-04-23T03:06:29;1.67;;;1.58;;
9330;SDS011;4704;50.470;12.072;2023-04-23T03:08:58;1.35;;;1.25;;
9330;SDS011;4704;50.470;12.072;2023-04-23T03:11:26;1.40;;;1.30;;
9330;SDS011;4704;50.470;12.072;2023-04-23T03:13:53;1.55;;;1.45;;
9330;SDS011;4704;50.470;12.072;2023-04-23T03:16:21;1.23;;;1.20;;
9330;SDS011;4704;50.470;12.072;2023-04-23T03:18:48;1.40;;;1.30;;
9330;SDS011;4704;50.470;12.072;2023-04-23T03:21:16;1.35;;;1.25;;
9330;SDS011;4704;50.470;12.072;2023-04-23T03:23:45;1.67;;;1.58;;
9330;SDS011;4704;50.470;12.072;2023-04-23T03:26:12;1.38;;;1.27;;
9330;SDS011;4704;50.470;12.072;2023-04-23T03:28:40;1.40;;;1.30;;
9330;SDS011;4704;50.470;12.072;2023-04-23T03:31:08;1.50;;;1.40;;
9330;SDS011;4704;50.470;12.072;2023-04-23T03:33:35;1.45;;;1.35;;
9330;SDS011;4704;50.470;12.072;2023-04-23T03:36:03;1.40;;;1.30;;
9330;SDS011;4704;50.470;12.072;2023-04-23T03:38:31;1.23;;;1.17;;
9330;SDS011;4704;50.470;12.072;2023-04-23T03:41:00;1.45;;;1.35;;
9330;SDS011;4704;50.470;12.072;2023-04-23T03:43:27;1.50;;;1.40;;
9330;SDS011;4704;50.470;12.072;2023-04-23T03:45:55;1.40;;;1.30;;
9330;SDS011;4704;50.470;12.072;2023-04-23T03:48:22;1.20;;;1.10;;
9330;SDS011;4704;50.470;12.072;2023-04-23T03:50:50;1.60;;;1.50;;
9330;SDS011;4704;50.470;12.072;2023-04-23T03:53:18;1.50;;;1.40;;
9330;SDS011;4704;50.470;12.072;2023-04-23T03:55:45;1.60;;;1.33;;
9330;SDS011;4704;50.470;12.072;2023-04-23T03:58:14;1.30;;;1.20;;
9330;SDS011;4704;50.470;12.072;2023-04-23T04:00:42;1.30;;;1.20;;
9330;SDS011;4704;50.470;12.072;2023-04-23T04:03:09;1.50;;;1.30;;
9330;SDS011;4704;50.470;12.072;2023-04-23T04:05:37;1.35;;;1.25;;
9330;SDS011;4704;50.470;12.072;2023-04-23T04:08:04;1.50;;;1.40;;
9330;SDS011;4704;50.470;12.072;2023-04-23T04:10:31;1.23;;;1.15;;
9330;SDS011;4704;50.470;12.072;2023-04-23T04:12:59;1.30;;;1.20;;
9330;SDS011;4704;50.470;12.072;2023-04-23T04:15:27;1.17;;;1.15;;
9330;SDS011;4704;50.470;12.072;2023-04-23T04:17:56;1.50;;;1.40;;
9330;SDS011;4704;50.470;12.072;2023-04-23T04:20:25;1.50;;;1.40;;
9330;SDS011;4704;50.470;12.072;2023-04-23T04:22:53;1.42;;;1.33;;
9330;SDS011;4704;50.470;12.072;2023-04-23T04:25:21;1.27;;;1.17;;
9330;SDS011;4704;50.470;12.072;2023-04-23T04:27:49;1.50;;;1.30;;
9330;SDS011;4704;50.470;12.072;2023-04-23T04:30:16;1.38;;;1.27;;
9330;SDS011;4704;50.470;12.072;2023-04-23T04:32:45;1.45;;;1.35;;
9330;SDS011;4704;50.470;12.072;2023-04-23T04:35:14;1.33;;;1.23;;
9330;SDS011;4704;50.470;12.072;2023-04-23T04:37:42;1.38;;;1.27;;
9330;SDS011;4704;50.470;12.072;2023-04-23T04:40:09;1.40;;;1.30;;
9330;SDS011;4704;50.470;12.072;2023-04-23T04:42:37;1.25;;;1.17;;
9330;SDS011;4704;50.470;12.072;2023-04-23T04:45:05;1.10;;;1.00;;
9330;SDS011;4704;50.470;12.072;2023-04-23T04:47:32;1.20;;;1.10;;
9330;SDS011;4704;50.470;12.072;2023-04-23T04:50:01;1.15;;;1.05;;
9330;SDS011;4704;50.470;12.072;2023-04-23T04:52:29;1.40;;;1.30;;
9330;SDS011;4704;50.470;12.072;2023-04-23T04:54:56;1.30;;;1.20;;
9330;SDS011;4704;50.470;12.072;2023-04-23T04:57:24;1.20;;;1.10;;
9330;SDS011;4704;50.470;12.072;2023-04-23T04:59:51;1.30;;;1.20;;
9330;SDS011;4704;50.470;12.072;2023-04-23T05:02:19;1.30;;;1.20;;
9330;SDS011;4704;50.470;12.072;2023-04-23T05:04:47;1.40;;;1.30;;
9330;SDS011;4704;50.470;12.072;2023-04-23T05:07:16;1.27;;;1.17;;
9330;SDS011;4704;50.470;12.072;2023-04-23T05:09:43;1.35;;;1.25;;
9330;SDS011;4704;50.470;12.072;2023-04-23T05:12:11;1.30;;;1.20;;
9330;SDS011;4704;50.470;12.072;2023-04-23T05:14:38;1.23;;;1.13;;
9330;SDS011;4704;50.470;12.072;2023-04-23T05:17:05;1.20;;;1.20;;
9330;SDS011;4704;50.470;12.072;2023-04-23T05:19:32;1.33;;;1.23;;
9330;SDS011;4704;50.470;12.072;2023-04-23T05:22:00;1.40;;;1.30;;
9330;SDS011;4704;50.470;12.072;2023-04-23T05:24:29;1.10;;;1.10;;
9330;SDS011;4704;50.470;12.072;2023-04-23T05:26:57;1.30;;;1.20;;
9330;SDS011;4704;50.470;12.072;2023-04-23T05:29:24;1.10;;;1.10;;
9330;SDS011;4704;50.470;12.072;2023-04-23T05:31:51;1.13;;;1.10;;
9330;SDS011;4704;50.470;12.072;2023-04-23T05:34:18;1.25;;;1.15;;
9330;SDS011;4704;50.470;12.072;2023-04-23T05:36:46;1.20;;;1.20;;
9330;SDS011;4704;50.470;12.072;2023-04-23T05:39:14;1.10;;;1.10;;
9330;SDS011;4704;50.470;12.072;2023-04-23T05:41:43;1.30;;;1.20;;
9330;SDS011;4704;50.470;12.072;2023-04-23T05:44:10;1.23;;;1.13;;
9330;SDS011;4704;50.470;12.072;2023-04-23T05:46:37;1.10;;;1.00;;
9330;SDS011;4704;50.470;12.072;2023-04-23T05:49:05;1.20;;;1.10;;
9330;SDS011;4704;50.470;12.072;2023-04-23T05:51:32;1.35;;;1.25;;
9330;SDS011;4704;50.470;12.072;2023-04-23T05:54:00;1.40;;;1.30;;
9330;SDS011;4704;50.470;12.072;2023-04-23T05:56:27;1.10;;;1.00;;
9330;SDS011;4704;50.470;12.072;2023-04-23T05:58:56;1.40;;;1.30;;
9330;SDS011;4704;50.470;12.072;2023-04-23T06:01:23;1.10;;;1.10;;
9330;SDS011;4704;50.470;12.072;2023-04-23T06:03:50;1.13;;;1.08;;
9330;SDS011;4704;50.470;12.072;2023-04-23T06:06:18;1.23;;;1.13;;
9330;SDS011;4704;50.470;12.072;2023-04-23T06:08:45;1.20;;;1.20;;
9330;SDS011;4704;50.470;12.072;2023-04-23T06:11:15;1.30;;;1.20;;
9330;SDS011;4704;50.470;12.072;2023-04-23T06:13:42;1.08;;;1.00;;
9330;SDS011;4704;50.470;12.072;2023-04-23T06:16:11;0.95;;;0.95;;
9330;SDS011;4704;50.470;12.072;2023-04-23T06:18:39;0.98;;;0.98;;
9330;SDS011;4704;50.470;12.072;2023-04-23T06:21:06;1.10;;;1.10;;
9330;SDS011;4704;50.470;12.072;2023-04-23T06:23:33;0.90;;;0.90;;
9330;SDS011;4704;50.470;12.072;2023-04-23T06:26:01;1.23;;;1.13;;
9330;SDS011;4704;50.470;12.072;2023-04-23T06:28:28;1.20;;;1.20;;
9330;SDS011;4704;50.470;12.072;2023-04-23T06:30:56;1.13;;;1.02;;
9330;SDS011;4704;50.470;12.072;2023-04-23T06:33:25;1.10;;;1.00;;
9330;SDS011;4704;50.470;12.072;2023-04-23T06:35:52;1.27;;;1.17;;
9330;SDS011;4704;50.470;12.072;2023-04-23T06:38:19;0.98;;;0.98;;
9330;SDS011;4704;50.470;12.072;2023-04-23T06:40:47;1.00;;;1.00;;
9330;SDS011;4704;50.470;12.072;2023-04-23T06:43:14;1.08;;;1.08;;
9330;SDS011;4704;50.470;12.072;2023-04-23T06:45:42;1.30;;;1.20;;
9330;SDS011;4704;50.470;12.072;2023-04-23T06:48:09;1.02;;;1.02;;
9330;SDS011;4704;50.470;12.072;2023-04-23T06:50:38;1.40;;;1.30;;
9330;SDS011;4704;50.470;12.072;2023-04-23T06:53:05;1.00;;;1.00;;
9330;SDS011;4704;50.470;12.072;2023-04-23T06:55:32;1.13;;;1.13;;
9330;SDS011;4704;50.470;12.072;2023-04-23T06:58:00;1.35;;;1.25;;
9330;SDS011;4704;50.470;12.072;2023-04-23T07:00:28;1.27;;;1.17;;
9330;SDS011;4704;50.470;12.072;2023-04-23T07:02:55;1.02;;;1.02;;
9330;SDS011;4704;50.470;12.072;2023-04-23T07:05:22;1.10;;;1.00;;
9330;SDS011;4704;50.470;12.072;2023-04-23T07:07:51;1.20;;;1.10;;
9330;SDS011;4704;50.470;12.072;2023-04-23T07:10:18;1.10;;;1.10;;
9330;SDS011;4704;50.470;12.072;2023-04-23T07:12:46;1.10;;;1.00;;
9330;SDS011;4704;50.470;12.072;2023-04-23T07:15:13;1.30;;;1.20;;
9330;SDS011;4704;50.470;12.072;2023-04-23T07:17:41;1.30;;;1.20;;
9330;SDS011;4704;50.470;12.072;2023-04-23T07:20:08;1.33;;;1.23;;
9330;SDS011;4704;50.470;12.072;2023-04-23T07:22:36;1.02;;;1.02;;
9330;SDS011;4704;50.470;12.072;2023-04-23T07:25:06;1.00;;;1.00;;
9330;SDS011;4704;50.470;12.072;2023-04-23T07:27:33;1.10;;;1.10;;
9330;SDS011;4704;50.470;12.072;2023-04-23T07:30:01;1.17;;;1.13;;
9330;SDS011;4704;50.470;12.072;2023-04-23T07:32:29;1.20;;;1.10;;
9330;SDS011;4704;50.470;12.072;2023-04-23T07:34:56;1.20;;;1.10;;
9330;SDS011;4704;50.470;12.072;2023-04-23T07:37:23;1.20;;;1.10;;
9330;SDS011;4704;50.470;12.072;2023-04-23T07:39:51;1.25;;;1.10;;
9330;SDS011;4704;50.470;12.072;2023-04-23T07:42:20;1.23;;;1.13;;
9330;SDS011;4704;50.470;12.072;2023-04-23T07:44:47;1.05;;;1.05;;
9330;SDS011;4704;50.470;12.072;2023-04-23T07:47:14;1.60;;;1.40;;
9330;SDS011;4704;50.470;12.072;2023-04-23T07:49:42;1.00;;;1.00;;
9330;SDS011;4704;50.470;12.072;2023-04-23T07:52:09;0.90;;;0.90;;
9330;SDS011;4704;50.470;12.072;2023-04-23T07:54:36;1.40;;;1.30;;
9330;SDS011;4704;50.470;12.072;2023-04-23T07:57:04;1.10;;;1.00;;
9330;SDS011;4704;50.470;12.072;2023-04-23T07:59:32;1.05;;;1.05;;
9330;SDS011;4704;50.470;12.072;2023-04-23T08:02:00;1.17;;;1.17;;
9330;SDS011;4704;50.470;12.072;2023-04-23T08:04:28;1.17;;;1.08;;
9330;SDS011;4704;50.470;12.072;2023-04-23T08:06:55;1.27;;;1.17;;
9330;SDS011;4704;50.470;12.072;2023-04-23T08:09:23;1.10;;;1.00;;
9330;SDS011;4704;50.470;12.072;2023-04-23T08:11:50;1.02;;;1.00;;
9330;SDS011;4704;50.470;12.072;2023-04-23T08:14:18;0.90;;;0.90;;
9330;SDS011;4704;50.470;12.072;2023-04-23T08:16:47;0.98;;;0.98;;
9330;SDS011;4704;50.470;12.072;2023-04-23T08:19:15;1.10;;;1.05;;
9330;SDS011;4704;50.470;12.072;2023-04-23T08:21:42;1.10;;;1.00;;
9330;SDS011;4704;50.470;12.072;2023-04-23T08:24:09;1.00;;;1.00;;
9330;SDS011;4704;50.470;12.072;2023-04-23T08:26:37;1.10;;;1.10;;
9330;SDS011;4704;50.470;12.072;2023-04-23T08:29:04;1.15;;;1.13;;
9330;SDS011;4704;50.470;12.072;2023-04-23T08:31:31;0.90;;;0.90;;
9330;SDS011;4704;50.470;12.072;2023-04-23T08:34:00;0.77;;;0.77;;
9330;SDS011;4704;50.470;12.072;2023-04-23T08:36:27;1.30;;;1.20;;
9330;SDS011;4704;50.470;12.072;2023-04-23T08:38:54;1.00;;;1.00;;
9330;SDS011;4704;50.470;12.072;2023-04-23T08:41:22;0.95;;;0.95;;
9330;SDS011;4704;50.470;12.072;2023-04-23T08:43:51;0.90;;;0.90;;
9330;SDS011;4704;50.470;12.072;2023-04-23T08:46:20;1.00;;;1.00;;
9330;SDS011;4704;50.470;12.072;2023-04-23T08:48:48;0.80;;;0.80;;
9330;SDS011;4704;50.470;12.072;2023-04-23T08:51:20;0.98;;;0.98;;
9330;SDS011;4704;50.470;12.072;2023-04-23T08:53:48;1.10;;;1.10;;
9330;SDS011;4704;50.470;12.072;2023-04-23T08:56:17;0.80;;;0.80;;
9330;SDS011;4704;50.470;12.072;2023-04-23T08:58:44;1.20;;;1.10;;
9330;SDS011;4704;50.470;12.072;2023-04-23T09:01:13;0.90;;;0.90;;
9330;SDS011;4704;50.470;12.072;2023-04-23T09:03:41;1.08;;;1.08;;
9330;SDS011;4704;50.470;12.072;2023-04-23T09:06:08;1.00;;;1.00;;
9330;SDS011;4704;50.470;12.072;2023-04-23T09:08:37;0.80;;;0.80;;
9330;SDS011;4704;50.470;12.072;2023-04-23T09:11:04;1.48;;;1.02;;
9330;SDS011;4704;50.470;12.072;2023-04-23T09:13:32;0.98;;;0.90;;
9330;SDS011;4704;50.470;12.072;2023-04-23T09:16:01;0.80;;;0.80;;
9330;SDS011;4704;50.470;12.072;2023-04-23T09:18:28;1.38;;;1.10;;
9330;SDS011;4704;50.470;12.072;2023-04-23T09:20:55;0.88;;;0.88;;
9330;SDS011;4704;50.470;12.072;2023-04-23T09:23:23;1.00;;;0.90;;
9330;SDS011;4704;50.470;12.072;2023-04-23T09:25:51;1.20;;;1.10;;
9330;SDS011;4704;50.470;12.072;2023-04-23T09:28:19;1.00;;;0.90;;
9330;SDS011;4704;50.470;12.072;2023-04-23T09:30:47;1.00;;;0.90;;
9330;SDS011;4704;50.470;12.072;2023-04-23T09:33:15;0.93;;;0.93;;
9330;SDS011;4704;50.470;12.072;2023-04-23T09:35:42;0.90;;;0.90;;
9330;SDS011;4704;50.470;12.072;2023-04-23T09:38:12;1.05;;;1.00;;
9330;SDS011;4704;50.470;12.072;2023-04-23T09:40:39;0.80;;;0.80;;
9330;SDS011;4704;50.470;12.072;2023-04-23T09:43:09;1.00;;;1.00;;
9330;SDS011;4704;50.470;12.072;2023-04-23T09:45:46;0.80;;;0.80;;
9330;SDS011;4704;50.470;12.072;2023-04-23T09:48:13;0.93;;;0.93;;
9330;SDS011;4704;50.470;12.072;2023-04-23T09:50:40;1.20;;;1.08;;
9330;SDS011;4704;50.470;12.072;2023-04-23T09:53:08;1.20;;;0.90;;
9330;SDS011;4704;50.470;12.072;2023-04-23T09:55:36;1.42;;;0.82;;
9330;SDS011;4704;50.470;12.072;2023-04-23T09:58:06;1.92;;;1.00;;
9330;SDS011;4704;50.470;12.072;2023-04-23T10:00:38;1.10;;;1.00;;
9330;SDS011;4704;50.470;12.072;2023-04-23T10:03:06;1.10;;;1.00;;
9330;SDS011;4704;50.470;12.072;2023-04-23T10:05:36;0.80;;;0.80;;
9330;SDS011;4704;50.470;12.072;2023-04-23T10:08:04;2.00;;;0.90;;
9330;SDS011;4704;50.470;12.072;2023-04-23T10:10:32;0.90;;;0.90;;
9330;SDS011;4704;50.470;12.072;2023-04-23T10:13:00;1.00;;;1.00;;
9330;SDS011;4704;50.470;12.072;2023-04-23T10:15:27;1.73;;;0.85;;
9330;SDS011;4704;50.470;12.072;2023-04-23T10:17:56;2.05;;;1.15;;
9330;SDS011;4704;50.470;12.072;2023-04-23T10:20:24;1.58;;;0.90;;
9330;SDS011;4704;50.470;12.072;2023-04-23T10:22:52;0.90;;;0.90;;
9330;SDS011;4704;50.470;12.072;2023-04-23T10:25:20;1.10;;;1.08;;
9330;SDS011;4704;50.470;12.072;2023-04-23T10:27:48;1.60;;;1.05;;
9330;SDS011;4704;50.470;12.072;2023-04-23T10:30:18;1.75;;;1.00;;
9330;SDS011;4704;50.470;12.072;2023-04-23T10:32:46;1.10;;;1.00;;
9330;SDS011;4704;50.470;12.072;2023-04-23T10:35:16;1.10;;;1.08;;
9330;SDS011;4704;50.470;12.072;2023-04-23T10:37:43;1.10;;;1.00;;
9330;SDS011;4704;50.470;12.072;2023-04-23T10:40:13;1.30;;;1.20;;
9330;SDS011;4704;50.470;12.072;2023-04-23T10:42:40;1.30;;;1.20;;
9330;SDS011;4704;50.470;12.072;2023-04-23T10:45:12;1.30;;;1.20;;
9330;SDS011;4704;50.470;12.072;2023-04-23T10:47:41;1.40;;;1.30;;
9330;SDS011;4704;50.470;12.072;2023-04-23T10:50:21;1.30;;;1.20;;
9330;SDS011;4704;50.470;12.072;2023-04-23T10:52:48;1.55;;;1.33;;
9330;SDS011;4704;50.470;12.072;2023-04-23T10:55:18;1.50;;;1.40;;
9330;SDS011;4704;50.470;12.072;2023-04-23T11:00:28;1.38;;;1.27;;
9330;SDS011;4704;50.470;12.072;2023-04-23T11:02:55;1.77;;;1.60;;
9330;SDS011;4704;50.470;12.072;2023-04-23T11:05:24;1.58;;;1.10;;
9330;SDS011;4704;50.470;12.072;2023-04-23T11:08:03;1.45;;;1.35;;
9330;SDS011;4704;50.470;12.072;2023-04-23T11:10:30;1.70;;;1.30;;
9330;SDS011;4704;50.470;12.072;2023-04-23T11:13:08;1.58;;;1.27;;
9330;SDS011;4704;50.470;12.072;2023-04-23T11:15:45;2.47;;;1.50;;
9330;SDS011;4704;50.470;12.072;2023-04-23T11:18:13;1.65;;;1.55;;
9330;SDS011;4704;50.470;12.072;2023-04-23T11:20:41;1.50;;;1.40;;
9330;SDS011;4704;50.470;12.072;2023-04-23T11:23:09;1.30;;;1.20;;
9330;SDS011;4704;50.470;12.072;2023-04-23T11:25:56;1.48;;;1.33;;
9330;SDS011;4704;50.470;12.072;2023-04-23T11:28:24;2.05;;;1.38;;
9330;SDS011;4704;50.470;12.072;2023-04-23T11:30:51;1.98;;;1.40;;
9330;SDS011;4704;50.470;12.072;2023-04-23T11:33:19;1.80;;;1.20;;
9330;SDS011;4704;50.470;12.072;2023-04-23T11:35:48;1.40;;;1.30;;
9330;SDS011;4704;50.470;12.072;2023-04-23T11:38:16;2.00;;;1.40;;
9330;SDS011;4704;50.470;12.072;2023-04-23T11:40:44;1.30;;;1.20;;
9330;SDS011;4704;50.470;12.072;2023-04-23T11:43:17;1.58;;;1.48;;
9330;SDS011;4704;50.470;12.072;2023-04-23T11:45:45;1.50;;;1.40;;
9330;SDS011;4704;50.470;12.072;2023-04-23T11:48:13;1.50;;;1.40;;
9330;SDS011;4704;50.470;12.072;2023-04-23T11:50:40;1.60;;;1.50;;
9330;SDS011;4704;50.470;12.072;2023-04-23T11:53:09;1.55;;;1.45;;
9330;SDS011;4704;50.470;12.072;2023-04-23T12:00:41;2.53;;;1.45;;
9330;SDS011;4704;50.470;12.072;2023-04-23T12:03:08;2.83;;;1.50;;
9330;SDS011;4704;50.470;12.072;2023-04-23T12:05:39;2.25;;;1.65;;
9330;SDS011;4704;50.470;12.072;2023-04-23T12:08:10;3.00;;;1.65;;
9330;SDS011;4704;50.470;12.072;2023-04-23T12:10:40;2.58;;;1.70;;
9330;SDS011;4704;50.470;12.072;2023-04-23T12:13:12;4.20;;;1.60;;
9330;SDS011;4704;50.470;12.072;2023-04-23T12:15:43;3.10;;;1.45;;
9330;SDS011;4704;50.470;12.072;2023-04-23T12:18:10;1.95;;;1.80;;
9330;SDS011;4704;50.470;12.072;2023-04-23T12:20:38;1.60;;;1.50;;
9330;SDS011;4704;50.470;12.072;2023-04-23T12:23:06;1.67;;;1.45;;
9330;SDS011;4704;50.470;12.072;2023-04-23T12:25:35;1.95;;;1.35;;
9330;SDS011;4704;50.470;12.072;2023-04-23T12:28:03;2.50;;;1.60;;
9330;SDS011;4704;50.470;12.072;2023-04-23T12:30:31;4.35;;;2.00;;
9330;SDS011;4704;50.470;12.072;2023-04-23T12:32:59;1.95;;;1.50;;
9330;SDS011;4704;50.470;12.072;2023-04-23T12:35:39;2.00;;;1.45;;
9330;SDS011;4704;50.470;12.072;2023-04-23T12:38:08;1.48;;;1.38;;
9330;SDS011;4704;50.470;12.072;2023-04-23T12:40:49;1.60;;;1.50;;
9330;SDS011;4704;50.470;12.072;2023-04-23T12:43:16;1.58;;;1.48;;
9330;SDS011;4704;50.470;12.072;2023-04-23T12:45:44;1.60;;;1.40;;
9330;SDS011;4704;50.470;12.072;2023-04-23T12:48:12;1.98;;;1.50;;
9330;SDS011;4704;50.470;12.072;2023-04-23T12:50:40;1.40;;;1.30;;
9330;SDS011;4704;50.470;12.072;2023-04-23T12:53:08;1.50;;;1.40;;
9330;SDS011;4704;50.470;12.072;2023-04-23T12:55:35;1.70;;;1.52;;
9330;SDS011;4704;50.470;12.072;2023-04-23T12:58:05;1.42;;;1.23;;
9330;SDS011;4704;50.470;12.072;2023-04-23T13:00:33;1.73;;;1.50;;
9330;SDS011;4704;50.470;12.072;2023-04-23T13:03:01;2.00;;;1.27;;
9330;SDS011;4704;50.470;12.072;2023-04-23T13:05:29;2.20;;;1.25;;
9330;SDS011;4704;50.470;12.072;2023-04-23T13:07:56;1.63;;;1.50;;
9330;SDS011;4704;50.470;12.072;2023-04-23T13:10:25;1.50;;;1.40;;
9330;SDS011;4704;50.470;12.072;2023-04-23T13:12:55;1.40;;;1.30;;
9330;SDS011;4704;50.470;12.072;2023-04-23T13:15:24;1.30;;;1.20;;
9330;SDS011;4704;50.470;12.072;2023-04-23T13:17:51;2.40;;;1.33;;
9330;SDS011;4704;50.470;12.072;2023-04-23T13:20:19;1.42;;;1.30;;
9330;SDS011;4704;50.470;12.072;2023-04-23T13:22:47;1.58;;;1.25;;
9330;SDS011;4704;50.470;12.072;2023-04-23T13:25:15;1.20;;;1.10;;
9330;SDS011;4704;50.470;12.072;2023-04-23T13:27:44;1.45;;;1.30;;
9330;SDS011;4704;50.470;12.072;2023-04-23T13:30:12;1.48;;;1.23;;
9330;SDS011;4704;50.470;12.072;2023-04-23T13:32:41;2.13;;;1.33;;
9330;SDS011;4704;50.470;12.072;2023-04-23T13:35:08;1.08;;;1.05;;
9330;SDS011;4704;50.470;12.072;2023-04-23T13:37:38;1.95;;;1.30;;
9330;SDS011;4704;50.470;12.072;2023-04-23T13:40:07;1.80;;;1.20;;
9330;SDS011;4704;50.470;12.072;2023-04-23T13:42:35;1.33;;;1.23;;
9330;SDS011;4704;50.470;12.072;2023-04-23T13:45:03;1.40;;;1.30;;
9330;SDS011;4704;50.470;12.072;2023-04-23T13:47:31;2.15;;;1.30;;
9330;SDS011;4704;50.470;12.072;2023-04-23T13:50:00;1.30;;;1.20;;
9330;SDS011;4704;50.470;12.072;2023-04-23T13:52:30;1.60;;;1.50;;
9330;SDS011;4704;50.470;12.072;2023-04-23T13:54:58;1.40;;;1.30;;
9330;SDS011;4704;50.470;12.072;2023-04-23T13:57:27;2.17;;;1.30;;
9330;SDS011;4704;50.470;12.072;2023-04-23T13:59:55;1.60;;;1.20;;
9330;SDS011;4704;50.470;12.072;2023-04-23T14:02:24;1.45;;;1.35;;
9330;SDS011;4704;50.470;12.072;2023-04-23T14:04:52;1.55;;;1.45;;
9330;SDS011;4704;50.470;12.072;2023-04-23T14:07:21;1.92;;;1.40;;
9330;SDS011;4704;50.470;12.072;2023-04-23T14:09:49;1.80;;;1.25;;
9330;SDS011;4704;50.470;12.072;2023-04-23T14:12:17;1.60;;;1.20;;
9330;SDS011;4704;50.470;12.072;2023-04-23T14:14:44;1.88;;;1.10;;
9330;SDS011;4704;50.470;12.072;2023-04-23T14:17:12;1.35;;;1.25;;
9330;SDS011;4704;50.470;12.072;2023-04-23T14:19:39;1.42;;;1.33;;
9330;SDS011;4704;50.470;12.072;2023-04-23T14:22:07;1.65;;;1.38;;
9330;SDS011;4704;50.470;12.072;2023-04-23T14:24:37;1.10;;;1.10;;
9330;SDS011;4704;50.470;12.072;2023-04-23T14:27:05;2.42;;;1.38;;
9330;SDS011;4704;50.470;12.072;2023-04-23T14:29:34;1.40;;;1.30;;
9330;SDS011;4704;50.470;12.072;2023-04-23T14:32:02;2.35;;;1.35;;
9330;SDS011;4704;50.470;12.072;2023-04-23T14:34:30;2.65;;;1.23;;
9330;SDS011;4704;50.470;12.072;2023-04-23T14:36:59;1.80;;;1.20;;
9330;SDS011;4704;50.470;12.072;2023-04-23T14:39:26;1.15;;;1.05;;
9330;SDS011;4704;50.470;12.072;2023-04-23T14:41:56;2.17;;;1.33;;
9330;SDS011;4704;50.470;12.072;2023-04-23T14:44:23;2.00;;;1.20;;
9330;SDS011;4704;50.470;12.072;2023-04-23T14:46:51;1.50;;;1.10;;
9330;SDS011;4704;50.470;12.072;2023-04-23T14:49:19;1.27;;;1.10;;
9330;SDS011;4704;50.470;12.072;2023-04-23T14:51:46;1.40;;;1.13;;
9330;SDS011;4704;50.470;12.072;2023-04-23T14:54:18;1.90;;;1.10;;
9330;SDS011;4704;50.470;12.072;2023-04-23T14:56:45;1.27;;;1.10;;
9330;SDS011;4704;50.470;12.072;2023-04-23T14:59:14;1.30;;;0.90;;
9330;SDS011;4704;50.470;12.072;2023-04-23T15:01:42;1.40;;;1.30;;
9330;SDS011;4704;50.470;12.072;2023-04-23T15:04:09;1.02;;;1.02;;
9330;SDS011;4704;50.470;12.072;2023-04-23T15:06:37;1.30;;;1.20;;
9330;SDS011;4704;50.470;12.072;2023-04-23T15:09:05;1.10;;;1.00;;
9330;SDS011;4704;50.470;12.072;2023-04-23T15:11:33;1.67;;;1.27;;
9330;SDS011;4704;50.470;12.072;2023-04-23T15:14:05;1.42;;;1.02;;